sensor_id;sensor_type;location;lat;lon;timestamp;temperature;humidity
4312;DHT22;2169;49.086;9.284;2023-05-16T00:01:03;13.40;60.70
4312;DHT22;2169;49.086;9.284;2023-05-16T00:03:30;13.40;60.80
4312;DHT22;2169;49.086;9.284;2023-05-16T00:05:56;13.40;60.80
4312;DHT22;2169;49.086;9.284;2023-05-16T00:08:24;13.40;60.90
4312;DHT22;2169;49.086;9.284;2023-05-16T00:10:52;13.40;61.00
4312;DHT22;2169;49.086;9.284;2023-05-16T00:13:19;13.40;61.10
4312;DHT22;2169;49.086;9.284;2023-05-16T00:15:49;13.40;61.10
4312;DHT22;2169;49.086;9.284;2023-05-16T00:18:16;13.40;61.80
4312;DHT22;2169;49.086;9.284;2023-05-16T00:20:43;13.30;61.10
4312;DHT22;2169;49.086;9.284;2023-05-16T00:23:10;13.40;61.20
4312;DHT22;2169;49.086;9.284;2023-05-16T00:25:37;13.30;61.10
4312;DHT22;2169;49.086;9.284;2023-05-16T00:28:05;13.20;61.10
4312;DHT22;2169;49.086;9.284;2023-05-16T00:30:32;13.20;61.20
4312;DHT22;2169;49.086;9.284;2023-05-16T00:32:59;13.20;61.20
4312;DHT22;2169;49.086;9.284;2023-05-16T00:35:27;13.10;61.20
4312;DHT22;2169;49.086;9.284;2023-05-16T00:37:53;13.10;61.40
4312;DHT22;2169;49.086;9.284;2023-05-16T00:40:20;13.00;61.30
4312;DHT22;2169;49.086;9.284;2023-05-16T00:42:47;13.00;61.50
4312;DHT22;2169;49.086;9.284;2023-05-16T00:45:15;12.90;61.40
4312;DHT22;2169;49.086;9.284;2023-05-16T00:47:42;12.90;61.50
4312;DHT22;2169;49.086;9.284;2023-05-16T00:50:09;12.80;61.60
4312;DHT22;2169;49.086;9.284;2023-05-16T00:52:36;12.80;61.70
4312;DHT22;2169;49.086;9.284;2023-05-16T00:55:04;12.80;61.80
4312;DHT22;2169;49.086;9.284;2023-05-16T00:57:31;12.80;61.80
4312;DHT22;2169;49.086;9.284;2023-05-16T00:59:58;12.80;61.80
4312;DHT22;2169;49.086;9.284;2023-05-16T01:02:27;12.80;61.70
4312;DHT22;2169;49.086;9.284;2023-05-16T01:04:55;12.70;61.70
4312;DHT22;2169;49.086;9.284;2023-05-16T01:07:22;12.70;61.70
4312;DHT22;2169;49.086;9.284;2023-05-16T01:09:49;12.60;61.70
4312;DHT22;2169;49.086;9.284;2023-05-16T01:12:22;12.70;61.90
4312;DHT22;2169;49.086;9.284;2023-05-16T01:14:55;12.60;61.80
4312;DHT22;2169;49.086;9.284;2023-05-16T01:17:35;12.60;61.80
4312;DHT22;2169;49.086;9.284;2023-05-16T01:20:08;12.60;62.00
4312;DHT22;2169;49.086;9.284;2023-05-16T01:22:51;12.60;61.90
4312;DHT22;2169;49.086;9.284;2023-05-16T01:25:35;12.50;61.80
4312;DHT22;2169;49.086;9.284;2023-05-16T01:28:06;12.50;61.90
4312;DHT22;2169;49.086;9.284;2023-05-16T01:30:39;12.50;61.90
4312;DHT22;2169;49.086;9.284;2023-05-16T01:33:06;12.40;61.80
4312;DHT22;2169;49.086;9.284;2023-05-16T01:35:34;12.40;61.80
4312;DHT22;2169;49.086;9.284;2023-05-16T01:38:06;12.40;61.90
4312;DHT22;2169;49.086;9.284;2023-05-16T01:40:43;12.40;62.00
4312;DHT22;2169;49.086;9.284;2023-05-16T01:43:16;12.30;62.00
4312;DHT22;2169;49.086;9.284;2023-05-16T01:45:48;12.30;62.00
4312;DHT22;2169;49.086;9.284;2023-05-16T01:48:21;12.30;62.10
4312;DHT22;2169;49.086;9.284;2023-05-16T01:50:53;12.20;62.00
4312;DHT22;2169;49.086;9.284;2023-05-16T01:53:26;12.20;62.00
4312;DHT22;2169;49.086;9.284;2023-05-16T01:55:56;12.20;62.00
4312;DHT22;2169;49.086;9.284;2023-05-16T01:58:27;12.10;61.90
4312;DHT22;2169;49.086;9.284;2023-05-16T02:00:59;12.10;62.00
4312;DHT22;2169;49.086;9.284;2023-05-16T02:03:27;12.00;62.10
4312;DHT22;2169;49.086;9.284;2023-05-16T02:05:54;11.90;62.00
4312;DHT22;2169;49.086;9.284;2023-05-16T02:08:21;11.90;62.20
4312;DHT22;2169;49.086;9.284;2023-05-16T02:10:48;11.90;62.30
4312;DHT22;2169;49.086;9.284;2023-05-16T02:13:15;11.90;62.40
4312;DHT22;2169;49.086;9.284;2023-05-16T02:15:44;11.90;62.50
4312;DHT22;2169;49.086;9.284;2023-05-16T02:18:10;11.90;62.60
4312;DHT22;2169;49.086;9.284;2023-05-16T02:20:37;11.80;62.50
4312;DHT22;2169;49.086;9.284;2023-05-16T02:23:05;11.80;62.60
4312;DHT22;2169;49.086;9.284;2023-05-16T02:25:31;11.80;62.60
4312;DHT22;2169;49.086;9.284;2023-05-16T02:27:58;11.80;62.70
4312;DHT22;2169;49.086;9.284;2023-05-16T02:30:25;11.80;63.30
4312;DHT22;2169;49.086;9.284;2023-05-16T02:32:53;11.80;62.70
4312;DHT22;2169;49.086;9.284;2023-05-16T02:35:20;11.70;62.70
4312;DHT22;2169;49.086;9.284;2023-05-16T02:37:46;11.70;62.80
4312;DHT22;2169;49.086;9.284;2023-05-16T02:40:13;11.80;63.00
4312;DHT22;2169;49.086;9.284;2023-05-16T02:42:40;11.70;62.90
4312;DHT22;2169;49.086;9.284;2023-05-16T02:45:07;11.70;63.70
4312;DHT22;2169;49.086;9.284;2023-05-16T02:47:34;11.70;63.10
4312;DHT22;2169;49.086;9.284;2023-05-16T02:50:04;11.70;63.20
4312;DHT22;2169;49.086;9.284;2023-05-16T02:52:31;11.70;63.30
4312;DHT22;2169;49.086;9.284;2023-05-16T02:54:58;11.70;63.40
4312;DHT22;2169;49.086;9.284;2023-05-16T02:57:25;11.70;63.50
4312;DHT22;2169;49.086;9.284;2023-05-16T02:59:51;11.60;63.60
4312;DHT22;2169;49.086;9.284;2023-05-16T03:02:18;11.70;63.80
4312;DHT22;2169;49.086;9.284;2023-05-16T03:04:45;11.70;63.90
4312;DHT22;2169;49.086;9.284;2023-05-16T03:07:13;11.70;64.00
4312;DHT22;2169;49.086;9.284;2023-05-16T03:09:40;11.70;64.00
4312;DHT22;2169;49.086;9.284;2023-05-16T03:12:07;11.70;64.10
4312;DHT22;2169;49.086;9.284;2023-05-16T03:14:33;11.70;64.80
4312;DHT22;2169;49.086;9.284;2023-05-16T03:17:00;11.70;64.20
4312;DHT22;2169;49.086;9.284;2023-05-16T03:19:27;11.70;64.20
4312;DHT22;2169;49.086;9.284;2023-05-16T03:21:54;11.70;64.30
4312;DHT22;2169;49.086;9.284;2023-05-16T03:24:22;11.70;64.40
4312;DHT22;2169;49.086;9.284;2023-05-16T03:26:49;11.70;64.50
4312;DHT22;2169;49.086;9.284;2023-05-16T03:29:16;11.70;64.50
4312;DHT22;2169;49.086;9.284;2023-05-16T03:31:43;11.70;64.60
4312;DHT22;2169;49.086;9.284;2023-05-16T03:34:10;11.70;64.70
4312;DHT22;2169;49.086;9.284;2023-05-16T03:36:38;11.70;64.70
4312;DHT22;2169;49.086;9.284;2023-05-16T03:39:05;11.70;64.90
4312;DHT22;2169;49.086;9.284;2023-05-16T03:41:34;11.70;64.90
4312;DHT22;2169;49.086;9.284;2023-05-16T03:44:01;11.70;65.00
4312;DHT22;2169;49.086;9.284;2023-05-16T03:46:27;11.70;65.00
4312;DHT22;2169;49.086;9.284;2023-05-16T03:48:54;11.70;65.10
4312;DHT22;2169;49.086;9.284;2023-05-16T03:51:21;11.70;65.20
4312;DHT22;2169;49.086;9.284;2023-05-16T03:53:48;11.70;65.30
4312;DHT22;2169;49.086;9.284;2023-05-16T03:56:14;11.70;65.40
4312;DHT22;2169;49.086;9.284;2023-05-16T03:58:43;11.70;65.50
4312;DHT22;2169;49.086;9.284;2023-05-16T04:01:10;11.70;65.60
4312;DHT22;2169;49.086;9.284;2023-05-16T04:03:36;11.70;65.60
4312;DHT22;2169;49.086;9.284;2023-05-16T04:06:04;11.70;65.70
4312;DHT22;2169;49.086;9.284;2023-05-16T04:08:30;11.80;65.80
4312;DHT22;2169;49.086;9.284;2023-05-16T04:10:57;11.70;65.80
4312;DHT22;2169;49.086;9.284;2023-05-16T04:13:24;11.70;65.90
4312;DHT22;2169;49.086;9.284;2023-05-16T04:15:52;11.70;66.00
4312;DHT22;2169;49.086;9.284;2023-05-16T04:18:19;11.80;66.10
4312;DHT22;2169;49.086;9.284;2023-05-16T04:20:46;11.80;66.20
4312;DHT22;2169;49.086;9.284;2023-05-16T04:23:13;11.80;66.30
4312;DHT22;2169;49.086;9.284;2023-05-16T04:25:39;11.80;66.30
4312;DHT22;2169;49.086;9.284;2023-05-16T04:28:06;11.80;66.40
4312;DHT22;2169;49.086;9.284;2023-05-16T04:30:33;11.90;66.60
4312;DHT22;2169;49.086;9.284;2023-05-16T04:33:01;11.90;66.60
4312;DHT22;2169;49.086;9.284;2023-05-16T04:35:28;11.90;66.70
4312;DHT22;2169;49.086;9.284;2023-05-16T04:37:55;11.90;66.80
4312;DHT22;2169;49.086;9.284;2023-05-16T04:40:22;11.90;66.80
4312;DHT22;2169;49.086;9.284;2023-05-16T04:42:49;12.00;67.00
4312;DHT22;2169;49.086;9.284;2023-05-16T04:45:16;12.00;67.10
4312;DHT22;2169;49.086;9.284;2023-05-16T04:47:43;12.00;67.10
4312;DHT22;2169;49.086;9.284;2023-05-16T04:50:11;12.00;67.20
4312;DHT22;2169;49.086;9.284;2023-05-16T04:52:39;12.10;67.40
4312;DHT22;2169;49.086;9.284;2023-05-16T04:55:07;12.10;67.50
4312;DHT22;2169;49.086;9.284;2023-05-16T04:57:33;12.20;67.60
4312;DHT22;2169;49.086;9.284;2023-05-16T05:00:00;12.20;67.70
4312;DHT22;2169;49.086;9.284;2023-05-16T05:02:30;12.20;67.70
4312;DHT22;2169;49.086;9.284;2023-05-16T05:04:56;12.20;67.70
4312;DHT22;2169;49.086;9.284;2023-05-16T05:07:25;12.30;67.80
4312;DHT22;2169;49.086;9.284;2023-05-16T05:09:53;12.30;67.90
4312;DHT22;2169;49.086;9.284;2023-05-16T05:12:20;12.40;68.10
4312;DHT22;2169;49.086;9.284;2023-05-16T05:14:47;12.40;68.10
4312;DHT22;2169;49.086;9.284;2023-05-16T05:17:14;12.40;68.10
4312;DHT22;2169;49.086;9.284;2023-05-16T05:19:41;12.50;68.30
4312;DHT22;2169;49.086;9.284;2023-05-16T05:22:07;12.50;68.30
4312;DHT22;2169;49.086;9.284;2023-05-16T05:24:36;12.50;68.30
4312;DHT22;2169;49.086;9.284;2023-05-16T05:27:03;12.60;68.40
4312;DHT22;2169;49.086;9.284;2023-05-16T05:29:30;12.60;68.40
4312;DHT22;2169;49.086;9.284;2023-05-16T05:31:56;12.70;68.60
4312;DHT22;2169;49.086;9.284;2023-05-16T05:34:23;12.70;68.60
4312;DHT22;2169;49.086;9.284;2023-05-16T05:36:50;12.80;68.70
4312;DHT22;2169;49.086;9.284;2023-05-16T05:39:17;12.80;68.70
4312;DHT22;2169;49.086;9.284;2023-05-16T05:41:45;12.90;68.70
4312;DHT22;2169;49.086;9.284;2023-05-16T05:44:12;12.90;68.60
4312;DHT22;2169;49.086;9.284;2023-05-16T05:46:39;12.90;68.60
4312;DHT22;2169;49.086;9.284;2023-05-16T05:49:05;13.00;68.60
4312;DHT22;2169;49.086;9.284;2023-05-16T05:51:32;13.00;68.60
4312;DHT22;2169;49.086;9.284;2023-05-16T05:54:00;13.00;68.50
4312;DHT22;2169;49.086;9.284;2023-05-16T05:56:27;13.00;68.50
4312;DHT22;2169;49.086;9.284;2023-05-16T05:58:55;13.10;68.50
4312;DHT22;2169;49.086;9.284;2023-05-16T06:01:22;13.10;68.40
4312;DHT22;2169;49.086;9.284;2023-05-16T06:03:49;13.10;68.40
4312;DHT22;2169;49.086;9.284;2023-05-16T06:06:16;13.10;68.30
4312;DHT22;2169;49.086;9.284;2023-05-16T06:08:43;13.10;68.30
4312;DHT22;2169;49.086;9.284;2023-05-16T06:11:10;13.20;68.40
4312;DHT22;2169;49.086;9.284;2023-05-16T06:13:37;13.20;68.30
4312;DHT22;2169;49.086;9.284;2023-05-16T06:16:05;13.20;68.30
4312;DHT22;2169;49.086;9.284;2023-05-16T06:18:32;13.20;68.20
4312;DHT22;2169;49.086;9.284;2023-05-16T06:20:59;13.20;68.10
4312;DHT22;2169;49.086;9.284;2023-05-16T06:23:26;13.20;68.10
4312;DHT22;2169;49.086;9.284;2023-05-16T06:25:52;13.20;68.00
4312;DHT22;2169;49.086;9.284;2023-05-16T06:28:19;13.30;68.10
4312;DHT22;2169;49.086;9.284;2023-05-16T06:30:46;13.30;68.10
4312;DHT22;2169;49.086;9.284;2023-05-16T06:33:17;13.30;68.10
4312;DHT22;2169;49.086;9.284;2023-05-16T06:35:44;13.30;68.10
4312;DHT22;2169;49.086;9.284;2023-05-16T06:38:12;13.30;68.10
4312;DHT22;2169;49.086;9.284;2023-05-16T06:40:39;13.30;68.00
4312;DHT22;2169;49.086;9.284;2023-05-16T06:43:06;13.30;68.00
4312;DHT22;2169;49.086;9.284;2023-05-16T06:45:32;13.40;68.00
4312;DHT22;2169;49.086;9.284;2023-05-16T06:47:59;13.40;67.80
4312;DHT22;2169;49.086;9.284;2023-05-16T06:50:27;13.40;67.80
4312;DHT22;2169;49.086;9.284;2023-05-16T06:52:54;13.40;67.80
4312;DHT22;2169;49.086;9.284;2023-05-16T06:55:21;13.40;67.70
4312;DHT22;2169;49.086;9.284;2023-05-16T06:57:48;13.40;67.70
4312;DHT22;2169;49.086;9.284;2023-05-16T07:00:20;13.50;67.70
4312;DHT22;2169;49.086;9.284;2023-05-16T07:02:47;13.40;67.50
4312;DHT22;2169;49.086;9.284;2023-05-16T07:05:14;13.50;67.50
4312;DHT22;2169;49.086;9.284;2023-05-16T07:07:43;13.50;67.50
4312;DHT22;2169;49.086;9.284;2023-05-16T07:10:10;13.40;67.30
4312;DHT22;2169;49.086;9.284;2023-05-16T07:12:40;13.40;67.40
4312;DHT22;2169;49.086;9.284;2023-05-16T07:15:08;13.50;67.60
4312;DHT22;2169;49.086;9.284;2023-05-16T07:17:34;13.40;67.40
4312;DHT22;2169;49.086;9.284;2023-05-16T07:20:01;13.50;67.40
4312;DHT22;2169;49.086;9.284;2023-05-16T07:22:29;13.50;67.40
4312;DHT22;2169;49.086;9.284;2023-05-16T07:24:57;13.50;67.30
4312;DHT22;2169;49.086;9.284;2023-05-16T07:27:25;13.40;67.20
4312;DHT22;2169;49.086;9.284;2023-05-16T07:29:52;13.40;67.20
4312;DHT22;2169;49.086;9.284;2023-05-16T07:32:18;13.40;67.30
4312;DHT22;2169;49.086;9.284;2023-05-16T07:34:45;13.40;67.30
4312;DHT22;2169;49.086;9.284;2023-05-16T07:37:12;13.40;67.40
4312;DHT22;2169;49.086;9.284;2023-05-16T07:39:41;13.30;67.40
4312;DHT22;2169;49.086;9.284;2023-05-16T07:42:09;13.30;67.50
4312;DHT22;2169;49.086;9.284;2023-05-16T07:44:36;13.20;67.60
4312;DHT22;2169;49.086;9.284;2023-05-16T07:47:03;13.20;67.70
4312;DHT22;2169;49.086;9.284;2023-05-16T07:49:31;13.20;67.80
4312;DHT22;2169;49.086;9.284;2023-05-16T07:51:57;13.20;67.90
4312;DHT22;2169;49.086;9.284;2023-05-16T07:54:24;13.20;67.90
4312;DHT22;2169;49.086;9.284;2023-05-16T07:56:51;13.20;68.00
4312;DHT22;2169;49.086;9.284;2023-05-16T07:59:19;13.20;68.00
4312;DHT22;2169;49.086;9.284;2023-05-16T08:01:46;13.20;68.10
4312;DHT22;2169;49.086;9.284;2023-05-16T08:04:13;13.20;68.10
4312;DHT22;2169;49.086;9.284;2023-05-16T08:06:40;13.20;68.20
4312;DHT22;2169;49.086;9.284;2023-05-16T08:09:06;13.20;68.30
4312;DHT22;2169;49.086;9.284;2023-05-16T08:11:34;13.20;68.40
4312;DHT22;2169;49.086;9.284;2023-05-16T08:14:02;13.20;68.50
4312;DHT22;2169;49.086;9.284;2023-05-16T08:16:30;13.20;68.70
4312;DHT22;2169;49.086;9.284;2023-05-16T08:18:57;13.20;68.70
4312;DHT22;2169;49.086;9.284;2023-05-16T08:21:24;13.30;68.90
4312;DHT22;2169;49.086;9.284;2023-05-16T08:23:51;13.30;69.00
4312;DHT22;2169;49.086;9.284;2023-05-16T08:26:18;13.30;69.00
4312;DHT22;2169;49.086;9.284;2023-05-16T08:28:46;13.40;69.20
4312;DHT22;2169;49.086;9.284;2023-05-16T08:31:13;13.40;69.20
4312;DHT22;2169;49.086;9.284;2023-05-16T08:33:41;13.40;69.20
4312;DHT22;2169;49.086;9.284;2023-05-16T08:36:08;13.40;69.20
4312;DHT22;2169;49.086;9.284;2023-05-16T08:38:35;13.40;69.20
4312;DHT22;2169;49.086;9.284;2023-05-16T08:41:02;13.40;69.20
4312;DHT22;2169;49.086;9.284;2023-05-16T08:43:29;13.40;69.30
4312;DHT22;2169;49.086;9.284;2023-05-16T08:45:58;13.40;69.30
4312;DHT22;2169;49.086;9.284;2023-05-16T08:48:26;13.40;69.50
4312;DHT22;2169;49.086;9.284;2023-05-16T08:50:55;13.40;69.60
4312;DHT22;2169;49.086;9.284;2023-05-16T08:53:27;13.40;69.70
4312;DHT22;2169;49.086;9.284;2023-05-16T08:55:56;13.40;69.70
4312;DHT22;2169;49.086;9.284;2023-05-16T08:58:24;13.40;70.30
4312;DHT22;2169;49.086;9.284;2023-05-16T09:00:51;13.40;69.70
4312;DHT22;2169;49.086;9.284;2023-05-16T09:03:17;13.50;69.90
4312;DHT22;2169;49.086;9.284;2023-05-16T09:05:46;13.50;69.80
4312;DHT22;2169;49.086;9.284;2023-05-16T09:08:14;13.50;69.80
4312;DHT22;2169;49.086;9.284;2023-05-16T09:10:41;13.60;69.90
4312;DHT22;2169;49.086;9.284;2023-05-16T09:13:07;13.60;69.90
4312;DHT22;2169;49.086;9.284;2023-05-16T09:15:34;13.60;69.80
4312;DHT22;2169;49.086;9.284;2023-05-16T09:18:01;13.70;69.90
4312;DHT22;2169;49.086;9.284;2023-05-16T09:20:29;13.70;69.90
4312;DHT22;2169;49.086;9.284;2023-05-16T09:22:58;13.70;69.90
4312;DHT22;2169;49.086;9.284;2023-05-16T09:25:28;13.70;69.80
4312;DHT22;2169;49.086;9.284;2023-05-16T09:27:56;13.80;70.00
4312;DHT22;2169;49.086;9.284;2023-05-16T09:30:27;13.80;69.90
4312;DHT22;2169;49.086;9.284;2023-05-16T09:32:55;13.80;69.90
4312;DHT22;2169;49.086;9.284;2023-05-16T09:35:22;13.80;69.90
4312;DHT22;2169;49.086;9.284;2023-05-16T09:37:50;13.90;70.00
4312;DHT22;2169;49.086;9.284;2023-05-16T09:40:19;13.90;70.00
4312;DHT22;2169;49.086;9.284;2023-05-16T09:43:00;13.90;70.00
4312;DHT22;2169;49.086;9.284;2023-05-16T09:45:27;14.00;70.00
4312;DHT22;2169;49.086;9.284;2023-05-16T09:48:00;13.90;69.80
4312;DHT22;2169;49.086;9.284;2023-05-16T09:50:27;13.90;69.80
4312;DHT22;2169;49.086;9.284;2023-05-16T09:52:53;13.90;69.80
4312;DHT22;2169;49.086;9.284;2023-05-16T09:55:22;14.00;69.90
4312;DHT22;2169;49.086;9.284;2023-05-16T09:57:50;13.90;69.80
4312;DHT22;2169;49.086;9.284;2023-05-16T10:00:17;14.00;70.00
4312;DHT22;2169;49.086;9.284;2023-05-16T10:02:44;14.00;70.00
4312;DHT22;2169;49.086;9.284;2023-05-16T10:05:11;13.90;69.80
4312;DHT22;2169;49.086;9.284;2023-05-16T10:07:40;14.00;70.10
4312;DHT22;2169;49.086;9.284;2023-05-16T10:10:08;14.00;70.00
4312;DHT22;2169;49.086;9.284;2023-05-16T10:12:37;14.00;70.00
4312;DHT22;2169;49.086;9.284;2023-05-16T10:15:06;14.10;70.00
4312;DHT22;2169;49.086;9.284;2023-05-16T10:17:35;14.10;70.10
4312;DHT22;2169;49.086;9.284;2023-05-16T10:20:07;14.10;70.10
4312;DHT22;2169;49.086;9.284;2023-05-16T10:22:36;14.10;70.00
4312;DHT22;2169;49.086;9.284;2023-05-16T10:25:08;14.10;70.00
4312;DHT22;2169;49.086;9.284;2023-05-16T10:27:37;14.20;70.00
4312;DHT22;2169;49.086;9.284;2023-05-16T10:30:09;14.20;69.90
4312;DHT22;2169;49.086;9.284;2023-05-16T10:32:36;14.20;69.90
4312;DHT22;2169;49.086;9.284;2023-05-16T10:35:03;14.20;69.90
4312;DHT22;2169;49.086;9.284;2023-05-16T10:37:31;14.20;69.80
4312;DHT22;2169;49.086;9.284;2023-05-16T10:39:59;14.20;69.80
4312;DHT22;2169;49.086;9.284;2023-05-16T10:42:26;14.30;70.00
4312;DHT22;2169;49.086;9.284;2023-05-16T10:44:53;14.30;69.80
4312;DHT22;2169;49.086;9.284;2023-05-16T10:47:22;14.30;69.60
4312;DHT22;2169;49.086;9.284;2023-05-16T10:49:49;14.20;69.40
4312;DHT22;2169;49.086;9.284;2023-05-16T10:52:16;14.20;69.30
4312;DHT22;2169;49.086;9.284;2023-05-16T10:54:49;14.20;69.30
4312;DHT22;2169;49.086;9.284;2023-05-16T10:57:18;14.20;69.30
4312;DHT22;2169;49.086;9.284;2023-05-16T10:59:48;14.10;69.20
4312;DHT22;2169;49.086;9.284;2023-05-16T11:02:27;14.10;69.00
4312;DHT22;2169;49.086;9.284;2023-05-16T11:04:54;14.10;68.90
4312;DHT22;2169;49.086;9.284;2023-05-16T11:07:24;14.10;68.90
4312;DHT22;2169;49.086;9.284;2023-05-16T11:10:08;14.10;68.80
4312;DHT22;2169;49.086;9.284;2023-05-16T11:12:42;14.10;68.70
4312;DHT22;2169;49.086;9.284;2023-05-16T11:15:20;14.00;68.50
4312;DHT22;2169;49.086;9.284;2023-05-16T11:17:53;14.00;68.50
4312;DHT22;2169;49.086;9.284;2023-05-16T11:20:30;14.00;68.50
4312;DHT22;2169;49.086;9.284;2023-05-16T11:23:22;13.90;68.20
4312;DHT22;2169;49.086;9.284;2023-05-16T11:25:52;13.90;68.10
4312;DHT22;2169;49.086;9.284;2023-05-16T11:28:20;13.80;67.90
4312;DHT22;2169;49.086;9.284;2023-05-16T11:30:48;13.80;67.90
4312;DHT22;2169;49.086;9.284;2023-05-16T11:33:17;13.90;67.90
4312;DHT22;2169;49.086;9.284;2023-05-16T11:35:58;13.90;67.90
4312;DHT22;2169;49.086;9.284;2023-05-16T11:38:25;13.90;67.80
4312;DHT22;2169;49.086;9.284;2023-05-16T11:40:52;13.90;67.80
4312;DHT22;2169;49.086;9.284;2023-05-16T11:43:19;13.90;67.60
4312;DHT22;2169;49.086;9.284;2023-05-16T11:45:46;13.90;67.50
4312;DHT22;2169;49.086;9.284;2023-05-16T11:48:22;14.00;67.40
4312;DHT22;2169;49.086;9.284;2023-05-16T11:50:49;14.00;67.40
4312;DHT22;2169;49.086;9.284;2023-05-16T11:53:17;14.00;67.30
4312;DHT22;2169;49.086;9.284;2023-05-16T11:55:44;14.10;67.30
4312;DHT22;2169;49.086;9.284;2023-05-16T11:58:16;14.10;67.30
4312;DHT22;2169;49.086;9.284;2023-05-16T12:00:47;14.20;67.30
4312;DHT22;2169;49.086;9.284;2023-05-16T12:03:14;14.20;67.10
4312;DHT22;2169;49.086;9.284;2023-05-16T12:05:50;14.20;66.90
4312;DHT22;2169;49.086;9.284;2023-05-16T12:08:18;14.20;66.80
4312;DHT22;2169;49.086;9.284;2023-05-16T12:10:46;14.20;66.70
4312;DHT22;2169;49.086;9.284;2023-05-16T12:13:14;14.30;66.70
4312;DHT22;2169;49.086;9.284;2023-05-16T12:15:41;14.30;66.60
4312;DHT22;2169;49.086;9.284;2023-05-16T12:18:08;14.30;66.60
4312;DHT22;2169;49.086;9.284;2023-05-16T12:20:35;14.20;66.40
4312;DHT22;2169;49.086;9.284;2023-05-16T12:23:03;14.30;66.50
4312;DHT22;2169;49.086;9.284;2023-05-16T12:25:31;14.30;66.40
4312;DHT22;2169;49.086;9.284;2023-05-16T12:28:01;14.30;66.30
4312;DHT22;2169;49.086;9.284;2023-05-16T12:30:29;14.30;66.10
4312;DHT22;2169;49.086;9.284;2023-05-16T12:32:57;14.30;66.00
4312;DHT22;2169;49.086;9.284;2023-05-16T12:35:24;14.30;65.90
4312;DHT22;2169;49.086;9.284;2023-05-16T12:37:52;14.30;65.60
4312;DHT22;2169;49.086;9.284;2023-05-16T12:40:20;14.20;65.30
4312;DHT22;2169;49.086;9.284;2023-05-16T12:42:48;14.20;65.30
4312;DHT22;2169;49.086;9.284;2023-05-16T12:45:16;14.30;65.60
4312;DHT22;2169;49.086;9.284;2023-05-16T12:47:43;14.30;65.50
4312;DHT22;2169;49.086;9.284;2023-05-16T12:50:12;14.30;65.30
4312;DHT22;2169;49.086;9.284;2023-05-16T12:52:48;14.20;65.00
4312;DHT22;2169;49.086;9.284;2023-05-16T12:55:15;14.20;64.90
4312;DHT22;2169;49.086;9.284;2023-05-16T12:57:43;14.20;64.90
4312;DHT22;2169;49.086;9.284;2023-05-16T13:00:12;14.20;65.00
4312;DHT22;2169;49.086;9.284;2023-05-16T13:02:40;14.20;64.90
4312;DHT22;2169;49.086;9.284;2023-05-16T13:05:07;14.30;65.00
4312;DHT22;2169;49.086;9.284;2023-05-16T13:07:35;14.30;64.80
4312;DHT22;2169;49.086;9.284;2023-05-16T13:10:02;14.40;64.90
4312;DHT22;2169;49.086;9.284;2023-05-16T13:12:32;14.40;64.70
4312;DHT22;2169;49.086;9.284;2023-05-16T13:15:00;14.50;64.80
4312;DHT22;2169;49.086;9.284;2023-05-16T13:17:27;14.50;64.40
4312;DHT22;2169;49.086;9.284;2023-05-16T13:19:54;14.50;64.10
4312;DHT22;2169;49.086;9.284;2023-05-16T13:22:21;14.50;64.00
4312;DHT22;2169;49.086;9.284;2023-05-16T13:24:48;14.50;64.60
4312;DHT22;2169;49.086;9.284;2023-05-16T13:27:15;14.50;63.60
4312;DHT22;2169;49.086;9.284;2023-05-16T13:29:42;14.50;63.50
4312;DHT22;2169;49.086;9.284;2023-05-16T13:32:10;14.50;63.40
4312;DHT22;2169;49.086;9.284;2023-05-16T13:34:37;14.60;63.40
4312;DHT22;2169;49.086;9.284;2023-05-16T13:37:04;14.60;63.30
4312;DHT22;2169;49.086;9.284;2023-05-16T13:39:31;14.70;63.30
4312;DHT22;2169;49.086;9.284;2023-05-16T13:41:58;14.70;63.30
4312;DHT22;2169;49.086;9.284;2023-05-16T13:44:25;14.80;63.10
4312;DHT22;2169;49.086;9.284;2023-05-16T13:46:52;14.80;63.00
4312;DHT22;2169;49.086;9.284;2023-05-16T13:49:20;14.90;62.80
4312;DHT22;2169;49.086;9.284;2023-05-16T13:51:46;14.90;62.50
4312;DHT22;2169;49.086;9.284;2023-05-16T13:54:13;15.00;62.40
4312;DHT22;2169;49.086;9.284;2023-05-16T13:56:40;15.00;62.00
4312;DHT22;2169;49.086;9.284;2023-05-16T13:59:07;15.00;61.80
4312;DHT22;2169;49.086;9.284;2023-05-16T14:01:34;15.00;61.60
4312;DHT22;2169;49.086;9.284;2023-05-16T14:04:01;15.10;61.70
4312;DHT22;2169;49.086;9.284;2023-05-16T14:06:29;15.10;61.60
4312;DHT22;2169;49.086;9.284;2023-05-16T14:08:55;15.20;61.40
4312;DHT22;2169;49.086;9.284;2023-05-16T14:11:22;15.20;61.20
4312;DHT22;2169;49.086;9.284;2023-05-16T14:13:51;15.20;61.00
4312;DHT22;2169;49.086;9.284;2023-05-16T14:16:18;15.20;61.00
4312;DHT22;2169;49.086;9.284;2023-05-16T14:18:45;15.30;61.00
4312;DHT22;2169;49.086;9.284;2023-05-16T14:21:12;15.30;60.70
4312;DHT22;2169;49.086;9.284;2023-05-16T14:23:40;15.30;60.70
4312;DHT22;2169;49.086;9.284;2023-05-16T14:26:07;15.30;60.40
4312;DHT22;2169;49.086;9.284;2023-05-16T14:28:34;15.30;60.30
4312;DHT22;2169;49.086;9.284;2023-05-16T14:31:01;15.30;60.00
4312;DHT22;2169;49.086;9.284;2023-05-16T14:33:28;15.30;59.90
4312;DHT22;2169;49.086;9.284;2023-05-16T14:35:55;15.40;60.10
4312;DHT22;2169;49.086;9.284;2023-05-16T14:38:22;15.40;59.70
4312;DHT22;2169;49.086;9.284;2023-05-16T14:40:50;15.40;59.60
4312;DHT22;2169;49.086;9.284;2023-05-16T14:43:17;15.40;59.20
4312;DHT22;2169;49.086;9.284;2023-05-16T14:45:43;15.40;59.00
4312;DHT22;2169;49.086;9.284;2023-05-16T14:48:10;15.40;59.10
4312;DHT22;2169;49.086;9.284;2023-05-16T14:50:37;15.40;59.20
4312;DHT22;2169;49.086;9.284;2023-05-16T14:53:04;15.40;58.80
4312;DHT22;2169;49.086;9.284;2023-05-16T14:55:31;15.40;58.80
4312;DHT22;2169;49.086;9.284;2023-05-16T14:57:59;15.50;58.80
4312;DHT22;2169;49.086;9.284;2023-05-16T15:00:26;15.50;58.70
4312;DHT22;2169;49.086;9.284;2023-05-16T15:02:52;15.50;58.70
4312;DHT22;2169;49.086;9.284;2023-05-16T15:05:19;15.60;58.60
4312;DHT22;2169;49.086;9.284;2023-05-16T15:07:46;15.60;58.30
4312;DHT22;2169;49.086;9.284;2023-05-16T15:10:13;15.60;58.00
4312;DHT22;2169;49.086;9.284;2023-05-16T15:12:39;15.60;57.90
4312;DHT22;2169;49.086;9.284;2023-05-16T15:15:10;15.70;57.80
4312;DHT22;2169;49.086;9.284;2023-05-16T15:17:37;15.60;57.50
4312;DHT22;2169;49.086;9.284;2023-05-16T15:20:05;15.60;57.60
4312;DHT22;2169;49.086;9.284;2023-05-16T15:22:32;15.60;57.50
4312;DHT22;2169;49.086;9.284;2023-05-16T15:24:59;15.60;57.40
4312;DHT22;2169;49.086;9.284;2023-05-16T15:27:26;15.60;57.30
4312;DHT22;2169;49.086;9.284;2023-05-16T15:29:53;15.60;56.80
4312;DHT22;2169;49.086;9.284;2023-05-16T15:32:21;15.50;56.50
4312;DHT22;2169;49.086;9.284;2023-05-16T15:34:48;15.50;56.30
4312;DHT22;2169;49.086;9.284;2023-05-16T15:37:15;15.50;56.30
4312;DHT22;2169;49.086;9.284;2023-05-16T15:39:42;15.50;56.20
4312;DHT22;2169;49.086;9.284;2023-05-16T15:42:09;15.40;55.80
4312;DHT22;2169;49.086;9.284;2023-05-16T15:44:36;15.40;55.50
4312;DHT22;2169;49.086;9.284;2023-05-16T15:47:04;15.40;55.40
4312;DHT22;2169;49.086;9.284;2023-05-16T15:49:33;15.40;55.50
4312;DHT22;2169;49.086;9.284;2023-05-16T15:51:59;15.30;54.70
4312;DHT22;2169;49.086;9.284;2023-05-16T15:54:27;15.30;54.80
4312;DHT22;2169;49.086;9.284;2023-05-16T15:56:53;15.30;54.80
4312;DHT22;2169;49.086;9.284;2023-05-16T15:59:20;15.30;54.60
4312;DHT22;2169;49.086;9.284;2023-05-16T16:01:47;15.30;54.60
4312;DHT22;2169;49.086;9.284;2023-05-16T16:04:14;15.30;54.50
4312;DHT22;2169;49.086;9.284;2023-05-16T16:06:42;15.30;54.30